Adell, WI

2:23 AM CDT on March 27, 2017 (GMT -0500)
Hingham Mill Pond | | Change Station

Elev 778 ft 43.65 °N, 87.92 °W | Updated 2 minutes ago

Overcast
Overcast
38.5 °F
Feels Like 38 °F
N
2.4
Wind Variable Wind from West
Gusts 3.7 mph

Today
High -- | Low -- °F
--% Chance of Precip.
Yesterday
High -- | Low -- °F
Precip. -- in
Pressure 29.89 in
Visibility 9.0 miles
Clouds Mostly Cloudy 700 ft
Overcast 2100 ft
Windchill 38 °F
Dew Point 38 °F
Humidity 99%
Rainfall 0.01 in
Snow Depth Not available.
6:41 AM 7:12 PM
Waning Crescent, 1% visible
METAR KSBM 270653Z AUTO 29005KT 9SM BKN007 OVC021 03/02 A2987 RMK AO2 SLP121 T00330022
Pressure 29.89 in
Visibility 9.0 miles
Clouds Mostly Cloudy 700 ft
Overcast 2100 ft
Windchill 38 °F
Dew Point 38 °F
Humidity 99%
Rainfall 0.01 in
Snow Depth Not available.
6:41 AM 7:12 PM
Waning Crescent, 1% visible
METAR KSBM 270653Z AUTO 29005KT 9SM BKN007 OVC021 03/02 A2987 RMK AO2 SLP121 T00330022

Get Severe Weather Alerts

Thanks for signing up!

Be on the lookout for a verification email in your inbox.

You'll start receiving the daily forecast at 8 AM.

×

10-Day Weather Forecast

Almanac

Astronomy

Mar. 27, 2017 Rise Set
Actual Time
Civil Twilight
Nautical Twilight
Astronomical Twilight
Moon
Length of Visible Light
Length of Day
Tomorrow will be .
, % of the Moon is Illuminated

Today's Extremes

State Highs State Lows

Community

WunderPhotos

Upload Photos

1,962,540 photos uploaded!

WunderBlog® & News

Nearby

Air Quality

  Air Quality AQ Index Pollutant
Not available.

Snow Depth

Station Depth Elevation

Earthquake Activity

City Distance Mag. Time & Date
Minimum magnitude displayed is 2.5.

Earthquake Activity

City Distance Mag. Time & Date
Minimum magnitude displayed is 2.5.

Coastal Water Temperatures

Place Temperature

Stations

Nearby Weather Stations

Station Location Temp. Windchill Dew Point Humidity Wind Precip. Elev Updated Type
                   

Watches & Warnings

There are currently no watches in effect.